Time;durP1;ratioP1;P1;durP2;ratioP2;P2;SDS_P1;SDS_P2;PMS_P1;PMS_P2;Temp;Humidity;BMP_temperature;BMP_pressure;BME280_temperature;BME280_humidity;BME280_pressure;Samples;Min_cycle;Max_cycle;Signal;HPM_P1;HPM_P2
2022/12/14 00:02:54;;;;;;;13.90;9.97;;;;;;;3.28;44.74;97524.19;6963411;28;20217;-82
2022/12/14 00:06:17;;;;;;;11.43;9.43;;;;;;;3.14;44.45;97503.78;6961946;28;20242;-83
2022/12/14 00:09:39;;;;;;;14.00;9.37;;;;;;;2.79;45.08;97446.09;6961537;28;20316;-82
2022/12/14 00:13:01;;;;;;;13.00;9.00;;;;;;;2.97;45.32;97497.91;6961224;28;20250;-83
2022/12/14 00:16:33;;;;;;;11.40;9.07;;;;;;;2.98;44.77;97498.72;6962581;28;20226;-81
2022/12/14 00:19:56;;;;;;;14.33;9.60;;;;;;;3.02;44.51;97474.16;6964126;28;20231;-81
2022/12/14 00:23:18;;;;;;;12.33;9.50;;;;;;;3.22;44.99;97455.72;6962528;28;20199;-83
2022/12/14 00:26:39;;;;;;;13.90;9.77;;;;;;;3.28;44.14;97426.50;6963337;28;20210;-82
2022/12/14 00:30:02;;;;;;;11.80;9.40;;;;;;;3.27;44.57;97469.28;6961820;28;20715;-81
2022/12/14 00:33:23;;;;;;;13.30;9.40;;;;;;;3.41;44.04;97460.38;6963883;28;20234;-82
2022/12/14 00:36:46;;;;;;;15.00;9.93;;;;;;;3.46;44.23;97445.47;6962422;28;20211;-83
2022/12/14 00:40:12;;;;;;;11.87;9.13;;;;;;;3.29;44.46;97432.63;6964062;28;20236;-81
2022/12/14 00:43:34;;;;;;;10.40;8.50;;;;;;;2.67;44.49;97351.84;6964613;28;20238;-82
2022/12/14 00:46:56;;;;;;;11.23;8.90;;;;;;;2.61;44.90;97361.41;6963805;28;20206;-83
2022/12/14 00:50:18;;;;;;;14.10;9.33;;;;;;;3.42;44.46;97446.06;6963871;28;20219;-81
2022/12/14 00:54:02;;;;;;;12.87;9.40;;;;;;;3.18;43.98;97394.03;6964315;28;20238;-82
2022/12/14 00:57:28;;;;;;;12.30;9.53;;;;;;;3.55;44.20;97448.81;6962351;28;20218;-81
2022/12/14 01:00:59;;;;;;;14.97;10.40;;;;;;;2.92;45.62;97443.56;6963323;28;20238;-84
2022/12/14 01:04:25;;;;;;;15.23;10.37;;;;;;;2.93;46.20;97445.22;6962188;28;20236;-81
2022/12/14 01:07:46;;;;;;;14.60;10.10;;;;;;;2.76;45.39;97455.28;6961718;28;20322;-81
2022/12/14 01:11:10;;;;;;;12.13;10.47;;;;;;;2.91;45.65;97434.78;6961628;28;20214;-82
2022/12/14 01:14:47;;;;;;;16.43;10.07;;;;;;;3.05;45.34;97449.00;6960747;28;20203;-82
2022/12/14 01:18:13;;;;;;;14.83;10.57;;;;;;;2.61;47.40;97393.31;6960101;28;20222;-81
2022/12/14 01:21:38;;;;;;;14.20;10.20;;;;;;;2.71;46.51;97455.03;6961374;28;20230;-81
2022/12/14 01:24:59;;;;;;;11.93;9.83;;;;;;;3.42;46.08;97457.53;6960739;28;20206;-81
2022/12/14 01:28:34;;;;;;;14.07;10.63;;;;;;;2.78;47.11;97458.56;6955269;28;20223;-81
2022/12/14 01:31:56;;;;;;;15.57;10.77;;;;;;;3.07;47.29;97436.34;6964107;28;20257;-82
2022/12/14 01:35:30;;;;;;;15.70;10.77;;;;;;;2.99;47.08;97463.09;6959045;28;20233;-82
2022/12/14 01:38:54;;;;;;;16.80;11.60;;;;;;;3.55;45.79;97432.84;6960312;28;20231;-82
2022/12/14 01:42:16;;;;;;;15.50;11.27;;;;;;;2.48;47.52;97434.94;6960612;28;20664;-81
2022/12/14 01:45:39;;;;;;;13.27;10.90;;;;;;;2.67;47.29;97429.00;6959668;28;20218;-83
2022/12/14 01:49:13;;;;;;;16.53;11.37;;;;;;;2.34;49.24;97435.78;6961810;28;20233;-80
2022/12/14 01:52:38;;;;;;;16.80;10.60;;;;;;;3.16;47.22;97438.69;6961383;28;20727;-82
2022/12/14 01:56:00;;;;;;;14.20;11.00;;;;;;;3.46;46.42;97452.63;6960044;28;20226;-81
2022/12/14 01:59:27;;;;;;;15.47;11.80;;;;;;;2.56;48.00;97410.88;6960356;28;20595;-82
2022/12/14 02:02:53;;;;;;;14.60;11.10;;;;;;;2.71;47.90;97439.06;6960131;28;20210;-84
2022/12/14 02:06:19;;;;;;;14.90;10.97;;;;;;;2.56;48.83;97393.09;6960180;28;20219;-82
2022/12/14 02:09:41;;;;;;;17.37;11.60;;;;;;;3.33;47.21;97401.94;6960731;28;20223;-81
2022/12/14 02:13:10;;;;;;;15.57;11.63;;;;;;;3.54;46.81;97400.03;6959818;28;20231;-82
2022/12/14 02:16:31;;;;;;;16.67;10.90;;;;;;;3.56;46.99;97405.16;6959627;28;20214;-81
2022/12/14 02:19:56;;;;;;;17.17;11.60;;;;;;;3.30;47.23;97391.69;6959488;28;20238;-81
2022/12/14 02:23:40;;;;;;;15.50;11.47;;;;;;;3.19;47.60;97377.03;6958816;28;20234;-82
2022/12/14 02:27:26;;;;;;;15.10;10.90;;;;;;;3.25;46.58;97408.22;6957708;28;20238;-82
2022/12/14 02:30:57;;;;;;;15.40;11.20;;;;;;;3.07;48.02;97402.56;6956692;28;20238;-81
2022/12/14 02:34:29;;;;;;;16.00;12.07;;;;;;;2.50;49.21;97399.16;6956544;28;20234;-80
2022/12/14 02:37:59;;;;;;;14.97;11.73;;;;;;;2.71;48.74;97382.38;6958649;28;20211;-81
2022/12/14 02:41:29;;;;;;;17.23;11.90;;;;;;;2.71;49.16;97374.41;6959076;28;20191;-82
2022/12/14 02:49:03;;;;;;;19.23;12.93;;;;;;;2.75;47.76;97322.44;6964487;28;20234;-82
2022/12/14 02:52:42;;;;;;;15.40;11.40;;;;;;;2.90;48.21;97376.41;6964771;28;20361;-81
2022/12/14 02:56:07;;;;;;;16.07;11.33;;;;;;;3.17;47.70;97372.91;6964489;28;20225;-80
2022/12/14 02:59:29;;;;;;;14.37;11.27;;;;;;;3.05;48.03;97377.97;6962509;28;20227;-79
2022/12/14 03:02:51;;;;;;;17.23;12.67;;;;;;;2.58;48.64;97372.44;6960739;28;20203;-79
2022/12/14 03:06:24;;;;;;;18.43;12.50;;;;;;;2.66;49.75;97385.59;6959374;28;20210;-79
2022/12/14 03:09:46;;;;;;;15.87;12.03;;;;;;;3.01;48.13;97374.03;6960574;28;20250;-79
2022/12/14 03:13:13;;;;;;;17.70;12.13;;;;;;;2.98;48.45;97362.97;6961895;28;20231;-79
2022/12/14 03:16:40;;;;;;;15.67;12.10;;;;;;;3.15;48.31;97345.69;6960509;28;20187;-79
2022/12/14 03:20:05;;;;;;;17.23;12.60;;;;;;;2.78;48.14;97364.63;6961332;28;20239;-79
2022/12/14 03:23:33;;;;;;;19.53;14.37;;;;;;;1.77;49.86;97291.44;6961450;28;20211;-79
2022/12/14 03:26:58;;;;;;;16.33;13.37;;;;;;;2.61;49.26;97364.06;6961152;28;20194;-79
2022/12/14 03:30:20;;;;;;;18.40;12.47;;;;;;;3.47;48.02;97353.88;6959096;28;20305;-80
2022/12/14 03:33:43;;;;;;;18.67;13.60;;;;;;;2.70;49.73;97344.31;6961260;28;20278;-79
2022/12/14 03:37:10;;;;;;;18.17;13.13;;;;;;;2.54;48.81;97341.91;6956524;28;20207;-79
2022/12/14 03:40:36;;;;;;;16.13;12.90;;;;;;;3.42;47.98;97343.00;6960581;28;20270;-79
2022/12/14 03:44:09;;;;;;;17.23;12.57;;;;;;;3.00;48.52;97343.13;6960282;28;20246;-79
2022/12/14 03:47:49;;;;;;;16.40;13.17;;;;;;;2.83;48.52;97283.19;6959326;28;20207;-80
2022/12/14 03:51:18;;;;;;;16.90;13.40;;;;;;;3.47;47.71;97327.25;6959623;28;20264;-79
2022/12/14 03:54:45;;;;;;;20.20;13.67;;;;;;;3.28;48.67;97314.63;6960513;28;20272;-80
2022/12/14 03:58:23;;;;;;;19.20;13.40;;;;;;;3.09;50.03;97306.53;6958805;28;20237;-80
2022/12/14 04:01:53;;;;;;;20.30;14.67;;;;;;;2.83;50.88;97272.56;6961508;28;20207;-79
2022/12/14 04:05:21;;;;;;;20.77;15.40;;;;;;;3.10;50.85;97300.19;6960281;28;20206;-79
2022/12/14 04:08:47;;;;;;;20.20;15.13;;;;;;;3.39;49.67;97290.13;6960849;28;20258;-80
2022/12/14 04:19:38;;;;;;;21.80;15.50;;;;;;;2.92;51.95;97291.88;6959556;28;20246;-79
2022/12/14 04:23:04;;;;;;;19.50;14.40;;;;;;;3.04;51.46;97269.84;6960236;28;20292;-79
2022/12/14 04:26:28;;;;;;;22.33;14.57;;;;;;;3.12;51.10;97276.88;6959012;28;20191;-79
2022/12/14 04:29:59;;;;;;;18.80;13.20;;;;;;;2.97;50.99;97246.88;6956166;28;20269;-79
2022/12/14 04:37:11;;;;;;;22.13;15.30;;;;;;;3.01;51.42;97254.25;6960125;28;20203;-79
2022/12/14 04:40:35;;;;;;;22.30;15.03;;;;;;;2.90;51.31;97243.34;6960451;28;20241;-79
2022/12/14 04:44:00;;;;;;;22.03;15.17;;;;;;;2.92;51.38;97252.78;6959717;28;20210;-79
2022/12/14 04:47:23;;;;;;;22.43;15.83;;;;;;;2.45;52.07;97187.97;6955064;28;20214;-81
2022/12/14 04:50:49;;;;;;;22.80;15.83;;;;;;;2.50;52.08;97222.78;6953472;28;20255;-82
2022/12/14 04:54:14;;;;;;;23.33;16.17;;;;;;;2.49;52.43;97255.72;6950414;28;20323;-82
2022/12/14 04:57:40;;;;;;;22.07;15.30;;;;;;;2.77;52.24;97236.09;6954302;28;20262;-79
2022/12/14 05:01:13;;;;;;;22.53;15.77;;;;;;;2.46;51.89;97221.53;6956449;28;20217;-79
2022/12/14 05:04:54;;;;;;;22.30;15.67;;;;;;;2.31;52.66;97239.41;6955791;28;20344;-79
2022/12/14 05:08:22;;;;;;;21.03;15.93;;;;;;;2.40;52.84;97249.72;6955353;28;20588;-79
2022/12/14 05:11:47;;;;;;;21.50;15.70;;;;;;;2.88;52.30;97237.38;6956043;28;20544;-80
2022/12/14 05:15:16;;;;;;;19.97;14.77;;;;;;;2.79;51.52;97233.25;6955843;28;20234;-80
2022/12/14 05:18:38;;;;;;;23.07;16.37;;;;;;;2.53;51.74;97233.88;6955716;28;20231;-80
2022/12/14 05:22:03;;;;;;;20.17;14.67;;;;;;;2.61;51.17;97185.84;6955263;28;20237;-80
2022/12/14 05:25:26;;;;;;;19.47;15.07;;;;;;;3.48;49.75;97208.22;6953678;28;20237;-79
2022/12/14 05:28:47;;;;;;;20.13;14.83;;;;;;;3.68;49.42;97201.91;6953120;28;20242;-79
2022/12/14 05:32:10;;;;;;;18.33;13.90;;;;;;;3.61;49.18;97187.72;6953754;28;20188;-79
2022/12/14 05:35:31;;;;;;;19.40;15.13;;;;;;;3.80;49.13;97199.47;6954270;28;20210;-80
2022/12/14 05:38:53;;;;;;;19.57;13.97;;;;;;;3.96;48.47;97204.44;6955244;28;20227;-80
2022/12/14 05:42:18;;;;;;;22.20;14.60;;;;;;;3.90;48.67;97192.72;6957144;28;20550;-81
2022/12/14 05:45:39;;;;;;;23.67;15.80;;;;;;;3.83;52.19;97185.75;6960877;28;20210;-79
2022/12/14 05:49:01;;;;;;;20.23;14.80;;;;;;;3.93;50.67;97189.66;6970134;28;20268;-79
2022/12/14 05:52:25;;;;;;;21.63;15.43;;;;;;;4.02;49.48;97143.09;6968591;28;20200;-77
2022/12/14 05:55:50;;;;;;;19.40;14.20;;;;;;;3.96;48.39;97178.56;6962990;28;20203;-77
2022/12/14 05:59:15;;;;;;;17.53;14.63;;;;;;;4.12;48.33;97188.84;6950483;28;20688;-81
2022/12/14 06:02:37;;;;;;;20.50;14.90;;;;;;;3.86;48.58;97161.34;6955902;28;20243;-81
2022/12/14 06:06:01;;;;;;;18.03;14.47;;;;;;;3.71;48.78;97126.09;6956401;28;20324;-82
2022/12/14 06:09:23;;;;;;;20.87;15.77;;;;;;;3.79;48.44;97153.34;6954090;28;20223;-80
2022/12/14 06:12:44;;;;;;;23.70;16.30;;;;;;;3.98;48.04;97149.88;6954946;28;20620;-85
2022/12/14 06:16:12;;;;;;;20.97;15.33;;;;;;;3.61;49.76;97155.75;6955458;28;20240;-83
2022/12/14 06:19:33;;;;;;;23.20;15.90;;;;;;;3.65;49.63;97130.38;6948715;28;20250;-83
2022/12/14 06:22:55;;;;;;;20.93;15.60;;;;;;;3.99;48.76;97172.03;6947577;28;20249;-84
2022/12/14 06:26:26;;;;;;;22.50;15.40;;;;;;;4.22;48.84;97162.63;6980454;28;20249;-81
2022/12/14 06:29:48;;;;;;;22.10;16.47;;;;;;;3.73;50.34;97164.81;6957095;28;20308;-81
2022/12/14 06:33:11;;;;;;;21.80;15.83;;;;;;;4.19;48.69;97151.53;6957988;28;20226;-80
2022/12/14 06:36:34;;;;;;;23.13;16.90;;;;;;;3.62;48.74;97069.50;6956048;28;20235;-80
2022/12/14 06:39:56;;;;;;;20.70;15.03;;;;;;;4.26;48.79;97139.00;6956515;28;20238;-80
2022/12/14 06:43:19;;;;;;;28.00;18.10;;;;;;;4.28;48.98;97144.94;6972669;28;20292;-80
2022/12/14 06:46:50;;;;;;;24.43;17.47;;;;;;;4.24;49.10;97138.41;6981048;28;20263;-80
2022/12/14 06:50:19;;;;;;;23.23;16.60;;;;;;;4.24;49.52;97149.06;6981968;28;20233;-80
2022/12/14 06:53:41;;;;;;;23.60;17.30;;;;;;;4.15;50.25;97124.47;6983623;28;20642;-80
2022/12/14 06:57:05;;;;;;;26.00;17.57;;;;;;;4.08;50.97;97138.81;6977109;28;20214;-80
2022/12/14 07:00:26;;;;;;;22.67;17.23;;;;;;;4.00;51.40;97131.00;6956674;28;20242;-80
2022/12/14 07:04:00;;;;;;;25.93;18.60;;;;;;;4.33;50.57;97121.16;6957801;28;20210;-80
2022/12/14 07:07:23;;;;;;;23.53;17.03;;;;;;;3.98;51.45;97117.91;6957312;28;20238;-80
2022/12/14 07:10:45;;;;;;;34.37;20.63;;;;;;;4.13;52.31;97125.69;6958405;28;20227;-80
2022/12/14 07:14:07;;;;;;;26.77;18.23;;;;;;;4.44;51.58;97110.69;6956054;28;20227;-80
2022/12/14 07:17:29;;;;;;;28.47;19.87;;;;;;;4.41;52.06;97097.75;6955321;28;20218;-80
2022/12/14 07:20:56;;;;;;;26.73;19.37;;;;;;;4.42;52.09;97094.03;6956179;28;20238;-80
2022/12/14 07:24:19;;;;;;;30.13;20.80;;;;;;;4.02;53.38;97100.44;6954911;28;20214;-80
2022/12/14 07:27:44;;;;;;;30.10;21.73;;;;;;;4.29;52.79;97096.75;6962793;28;20217;-81
2022/12/14 07:31:07;;;;;;;29.27;20.50;;;;;;;4.15;52.64;97075.63;6983810;28;20212;-79
2022/12/14 07:34:29;;;;;;;34.50;21.17;;;;;;;3.54;54.72;97076.88;6985907;28;20222;-79
2022/12/14 07:37:51;;;;;;;31.53;21.60;;;;;;;3.41;54.56;97032.38;6986294;28;20206;-79
2022/12/14 07:41:16;;;;;;;32.93;21.23;;;;;;;3.92;54.61;97084.06;6985408;28;20211;-80
2022/12/14 07:44:38;;;;;;;30.33;20.67;;;;;;;4.16;54.16;97074.59;6959195;28;20203;-80
2022/12/14 07:47:59;;;;;;;30.60;21.00;;;;;;;4.49;53.84;97086.03;6969410;28;20570;-79
2022/12/14 07:51:24;;;;;;;30.53;22.80;;;;;;;4.09;54.42;97079.13;6983841;28;20216;-79
2022/12/14 07:54:45;;;;;;;32.20;21.97;;;;;;;3.88;54.32;97076.66;6981709;28;20233;-80
2022/12/14 07:58:08;;;;;;;33.93;22.53;;;;;;;3.08;56.64;97094.59;6968080;28;20655;-79
2022/12/14 08:01:32;;;;;;;33.10;21.77;;;;;;;3.81;55.42;97062.53;6952468;28;20785;-79
2022/12/14 08:04:53;;;;;;;31.10;20.60;;;;;;;4.54;53.80;97063.03;6951828;28;20215;-79
2022/12/14 08:08:15;;;;;;;33.30;22.93;;;;;;;4.59;53.51;97049.88;6951292;28;20259;-80
2022/12/14 08:11:37;;;;;;;34.77;21.43;;;;;;;4.59;53.02;97046.38;6962315;28;20203;-80
2022/12/14 08:15:00;;;;;;;30.97;21.37;;;;;;;4.77;52.00;97066.03;6965431;28;20241;-79
2022/12/14 08:18:22;;;;;;;27.80;20.23;;;;;;;4.32;52.53;97026.16;6981138;28;20234;-79
2022/12/14 08:21:45;;;;;;;29.67;20.57;;;;;;;4.64;52.77;97063.41;6957147;28;20447;-79
2022/12/14 08:25:08;;;;;;;31.60;21.27;;;;;;;4.16;53.56;97054.09;6980058;28;20203;-79
2022/12/14 08:28:30;;;;;;;32.40;23.43;;;;;;;3.34;55.51;97039.56;6964798;28;20251;-79
2022/12/14 08:31:56;;;;;;;33.23;21.33;;;;;;;3.81;55.08;97062.53;6952934;28;20264;-79
2022/12/14 08:35:18;;;;;;;34.13;22.07;;;;;;;3.85;54.91;97037.09;6953275;28;20290;-79
2022/12/14 08:38:40;;;;;;;36.87;22.57;;;;;;;4.57;53.75;97038.59;6982302;28;20257;-79
2022/12/14 08:42:01;;;;;;;33.17;21.30;;;;;;;4.45;53.48;97020.78;6980970;28;20213;-78
2022/12/14 08:45:23;;;;;;;29.83;20.87;;;;;;;4.81;52.88;97043.25;6971288;28;20233;-78
2022/12/14 08:48:47;;;;;;;29.60;21.73;;;;;;;5.09;51.91;97043.72;6983062;28;20226;-78
2022/12/14 08:52:10;;;;;;;32.10;20.97;;;;;;;5.24;52.21;97056.78;6982022;28;20203;-78
2022/12/14 08:55:31;;;;;;;30.43;21.70;;;;;;;5.07;51.51;97019.06;6981915;28;20264;-78
2022/12/14 08:58:53;;;;;;;32.03;20.20;;;;;;;5.35;51.07;97054.25;6982764;28;20256;-78
2022/12/14 09:02:15;;;;;;;34.20;21.97;;;;;;;5.43;50.99;97072.69;6981589;28;20226;-79
2022/12/14 09:05:38;;;;;;;33.20;22.13;;;;;;;5.24;51.59;97064.81;6980844;28;20651;-78
2022/12/14 09:09:00;;;;;;;37.73;22.40;;;;;;;5.18;51.71;97037.09;6981945;28;20279;-78
2022/12/14 09:12:22;;;;;;;32.63;21.97;;;;;;;5.11;53.10;97063.00;6974710;28;20234;-78
2022/12/14 09:15:43;;;;;;;33.30;22.57;;;;;;;5.22;52.53;97051.66;6951289;28;20729;-78
2022/12/14 09:19:05;;;;;;;30.73;20.43;;;;;;;5.71;51.44;97059.75;6967839;28;20281;-78
2022/12/14 09:22:28;;;;;;;30.03;19.80;;;;;;;5.80;51.26;97055.00;6975807;28;20238;-78
2022/12/14 09:25:59;;;;;;;33.93;22.27;;;;;;;4.82;54.13;97070.72;6975540;28;20206;-78
2022/12/14 09:29:20;;;;;;;29.20;21.67;;;;;;;5.36;53.15;97047.06;6954228;28;20238;-78
2022/12/14 09:32:43;;;;;;;32.37;20.67;;;;;;;5.46;52.39;97040.22;6948515;28;20207;-78
2022/12/14 09:36:06;;;;;;;34.33;22.67;;;;;;;5.33;53.31;97036.78;6948609;28;20683;-78
2022/12/14 09:39:30;;;;;;;32.07;20.50;;;;;;;5.49;52.74;97015.72;6949736;28;20238;-78
2022/12/14 09:42:56;;;;;;;35.07;20.77;;;;;;;5.65;52.88;97017.06;6958507;28;20344;-78
2022/12/14 09:46:26;;;;;;;29.93;20.60;;;;;;;5.65;52.39;97017.06;6975857;28;20423;-78
2022/12/14 09:49:51;;;;;;;28.67;21.17;;;;;;;5.48;53.27;97015.94;6976517;28;20267;-78
2022/12/14 09:53:14;;;;;;;28.20;19.90;;;;;;;5.24;53.59;97022.88;6976842;28;20264;-79
2022/12/14 09:56:38;;;;;;;28.90;20.43;;;;;;;5.56;53.20;97029.88;6974403;28;20209;-79
2022/12/14 10:00:00;;;;;;;33.77;21.57;;;;;;;5.16;53.99;97009.78;6976405;28;20695;-78
2022/12/14 10:03:42;;;;;;;30.40;21.87;;;;;;;5.50;53.68;97028.06;6977215;28;20241;-79
2022/12/14 10:07:12;;;;;;;34.43;23.97;;;;;;;5.07;54.99;97024.41;6953458;28;20246;-78
2022/12/14 10:10:42;;;;;;;33.23;22.47;;;;;;;5.66;53.65;97014.13;6948915;28;20238;-78
2022/12/14 10:14:12;;;;;;;36.47;23.83;;;;;;;5.29;55.18;97012.38;6955059;28;20214;-79
2022/12/14 10:17:54;;;;;;;41.37;24.63;;;;;;;5.23;56.12;97007.88;6947470;28;20245;-79
2022/12/14 10:21:19;;;;;;;41.47;26.87;;;;;;;5.17;56.78;97021.25;6948189;28;20187;-80
2022/12/14 10:24:43;;;;;;;52.90;33.50;;;;;;;5.17;56.98;97013.25;6948336;28;20610;-79
2022/12/14 10:28:07;;;;;;;44.43;29.80;;;;;;;5.18;57.52;97023.72;6953671;28;20226;-76
2022/12/14 10:31:33;;;;;;;44.57;28.27;;;;;;;5.10;57.70;97015.97;6976101;28;20752;-76
2022/12/14 10:34:55;;;;;;;44.10;28.43;;;;;;;5.20;57.84;97015.50;6975347;28;20219;-76
2022/12/14 10:38:21;;;;;;;47.93;30.27;;;;;;;5.37;57.75;96992.59;6976626;28;20223;-77
2022/12/14 10:41:47;;;;;;;42.67;28.70;;;;;;;5.64;56.66;96997.50;6975440;28;20219;-80
2022/12/14 10:45:22;;;;;;;42.47;27.57;;;;;;;5.72;58.58;96981.19;6975894;28;20236;-79
2022/12/14 10:48:49;;;;;;;45.37;29.00;;;;;;;6.20;57.15;96981.38;6960648;28;20231;-76
2022/12/14 10:52:16;;;;;;;43.10;25.93;;;;;;;6.31;57.54;96991.34;6948051;28;20188;-74
2022/12/14 10:55:40;;;;;;;48.10;30.10;;;;;;;6.54;58.86;96989.63;6947309;28;20235;-78
2022/12/14 10:59:20;;;;;;;37.20;25.53;;;;;;;6.40;56.84;96972.09;6947676;28;20242;-79
2022/12/14 11:02:43;;;;;;;37.70;25.83;;;;;;;6.56;56.52;96974.19;6947620;28;20553;-77
2022/12/14 11:06:12;;;;;;;41.53;25.50;;;;;;;6.82;55.55;96952.41;6947355;28;20373;-78
2022/12/14 11:09:35;;;;;;;34.53;23.53;;;;;;;6.79;54.87;96971.59;6953066;28;20278;-77
2022/12/14 11:13:01;;;;;;;37.13;25.67;;;;;;;6.64;54.32;96957.81;6961734;28;20265;-77
2022/12/14 11:16:26;;;;;;;40.73;27.70;;;;;;;6.46;54.53;96967.69;6979453;28;20296;-77
2022/12/14 11:20:03;;;;;;;40.23;27.30;;;;;;;6.55;55.04;96977.88;6978856;28;20265;-77
2022/12/14 11:23:27;;;;;;;38.60;26.60;;;;;;;6.45;55.15;96958.88;6979932;28;20211;-78
2022/12/14 11:26:49;;;;;;;42.57;28.17;;;;;;;6.17;55.66;96971.13;6979536;28;20230;-77
2022/12/14 11:30:16;;;;;;;42.47;27.57;;;;;;;6.16;55.67;96967.63;7004413;28;20287;-77
2022/12/14 11:33:39;;;;;;;43.97;27.60;;;;;;;5.96;56.02;96975.03;7006620;28;20192;-77
2022/12/14 11:37:14;;;;;;;44.13;28.10;;;;;;;5.78;56.83;96982.97;7005968;28;20604;-77
2022/12/14 11:40:37;;;;;;;48.43;29.60;;;;;;;5.75;57.16;96985.28;7005653;28;20237;-77
2022/12/14 11:44:06;;;;;;;47.63;31.33;;;;;;;5.81;57.42;96969.22;6972689;28;20270;-77
2022/12/14 11:47:28;;;;;;;48.27;30.57;;;;;;;5.80;57.72;96975.63;6959451;28;20296;-76
2022/12/14 11:50:50;;;;;;;54.93;33.57;;;;;;;6.23;57.76;96972.91;7005907;28;20253;-76
2022/12/14 11:54:11;;;;;;;46.20;29.13;;;;;;;6.12;56.74;96974.47;7006558;28;20225;-76
2022/12/14 11:57:36;;;;;;;80.60;40.60;;;;;;;6.33;57.33;96951.81;7007134;28;20278;-77
2022/12/14 12:00:59;;;;;;;44.93;29.70;;;;;;;6.96;55.26;96956.53;7007384;28;20227;-76
2022/12/14 12:04:21;;;;;;;41.83;26.43;;;;;;;6.94;54.01;96950.59;6969968;28;20283;-76
2022/12/14 12:07:45;;;;;;;38.70;26.37;;;;;;;6.77;54.23;96960.31;6960563;28;20290;-76
2022/12/14 12:11:20;;;;;;;45.77;29.50;;;;;;;6.40;55.98;96950.69;6966791;28;20208;-76
2022/12/14 12:14:44;;;;;;;42.00;28.70;;;;;;;6.82;55.11;96938.19;6968218;28;20804;-75
2022/12/14 12:18:13;;;;;;;45.07;29.93;;;;;;;6.75;54.94;96951.69;6976936;28;20252;-75
2022/12/14 12:21:37;;;;;;;57.00;39.60;;;;;;;6.73;54.92;96964.47;6977914;28;20618;-76
2022/12/14 12:25:01;;;;;;;41.30;27.07;;;;;;;6.02;57.46;96970.66;6976945;28;20466;-75
2022/12/14 12:28:24;;;;;;;34.67;24.47;;;;;;;5.98;57.48;96975.66;6977595;28;20720;-74
2022/12/14 12:31:53;;;;;;;36.73;24.27;;;;;;;5.88;56.60;96943.22;6977727;28;20210;-75
2022/12/14 12:35:17;;;;;;;31.03;23.20;;;;;;;5.92;55.89;96962.31;6976943;28;20614;-75
2022/12/14 12:38:51;;;;;;;36.63;24.83;;;;;;;5.83;57.01;96967.13;6977604;28;20502;-75
2022/12/14 12:42:19;;;;;;;39.70;25.73;;;;;;;6.29;56.66;96955.97;6976706;28;20216;-74
2022/12/14 12:45:45;;;;;;;39.30;26.17;;;;;;;6.46;55.99;96959.66;6976781;28;20223;-74
2022/12/14 12:49:12;;;;;;;40.47;27.03;;;;;;;6.53;55.39;96979.16;6976616;28;20318;-75
2022/12/14 12:52:36;;;;;;;45.43;32.43;;;;;;;6.30;55.81;96974.47;6976695;28;20208;-75
2022/12/14 12:56:05;;;;;;;43.17;28.60;;;;;;;6.41;56.08;96971.06;6975947;28;20264;-75
2022/12/14 12:59:35;;;;;;;43.17;28.30;;;;;;;6.19;55.61;96979.75;6974615;28;20227;-74
2022/12/14 13:03:00;;;;;;;44.87;27.77;;;;;;;6.07;56.57;96981.53;6976434;28;20255;-74
2022/12/14 13:06:25;;;;;;;49.47;30.83;;;;;;;6.37;56.57;96999.28;6976128;28;20212;-75
2022/12/14 13:09:50;;;;;;;53.97;32.60;;;;;;;6.59;55.89;96997.81;6976829;28;20279;-75
2022/12/14 13:13:14;;;;;;;59.83;36.23;;;;;;;5.93;56.78;96996.88;6967408;28;20716;-75
2022/12/14 13:16:37;;;;;;;54.90;32.67;;;;;;;5.98;57.38;97002.38;6947880;28;20236;-74
2022/12/14 13:20:00;;;;;;;51.70;31.20;;;;;;;5.91;57.47;97017.69;6948798;28;20314;-75
2022/12/14 13:23:26;;;;;;;54.97;36.47;;;;;;;5.42;59.00;97025.63;6948414;28;20242;-76
2022/12/14 13:27:03;;;;;;;59.17;37.27;;;;;;;5.98;57.98;97023.78;6958634;28;20195;-75
2022/12/14 13:30:34;;;;;;;59.87;39.43;;;;;;;5.71;58.13;97005.50;6962964;28;20229;-75
2022/12/14 13:34:22;;;;;;;56.17;36.03;;;;;;;5.71;59.14;97008.16;6972843;28;20195;-76
2022/12/14 13:37:53;;;;;;;51.47;32.43;;;;;;;5.71;59.03;97006.28;6951706;28;20199;-78
2022/12/14 13:41:22;;;;;;;50.03;31.70;;;;;;;6.03;57.97;96989.19;6973565;28;20198;-80
2022/12/14 13:44:54;;;;;;;54.43;32.37;;;;;;;5.97;58.15;97003.44;6949591;28;20195;-78
2022/12/14 13:48:22;;;;;;;49.67;29.43;;;;;;;5.84;58.32;97005.41;6949030;28;20238;-77
2022/12/14 13:51:48;;;;;;;47.73;30.77;;;;;;;5.80;58.49;96996.16;6948089;28;20191;-76
2022/12/14 13:55:25;;;;;;;49.27;30.33;;;;;;;5.86;58.00;97014.00;6947284;28;20242;-76
2022/12/14 13:58:49;;;;;;;46.70;30.43;;;;;;;5.84;58.08;97040.16;6948330;28;20633;-76
2022/12/14 14:02:38;;;;;;;48.73;31.17;;;;;;;5.53;58.91;97035.63;6948187;28;20204;-76
2022/12/14 14:06:01;;;;;;;41.83;27.53;;;;;;;5.02;59.72;97042.13;6947425;28;20227;-76
2022/12/14 14:09:58;;;;;;;44.70;29.30;;;;;;;5.19;59.88;97041.38;6948003;28;20227;-76
2022/12/14 14:13:59;;;;;;;55.03;32.03;;;;;;;5.24;58.97;97048.78;6950273;28;20224;-77
2022/12/14 14:17:24;;;;;;;60.33;32.43;;;;;;;5.53;58.28;97053.50;6974395;28;20233;-75
2022/12/14 14:20:47;;;;;;;50.97;31.50;;;;;;;5.09;59.14;97054.41;6975862;28;20233;-77
2022/12/14 14:24:20;;;;;;;45.53;30.03;;;;;;;4.91;59.72;97045.44;6976170;28;20663;-77
2022/12/14 14:27:48;;;;;;;55.93;28.83;;;;;;;4.81;60.42;97059.25;6975605;28;20190;-76
2022/12/14 14:31:11;;;;;;;47.47;30.40;;;;;;;5.16;59.82;97065.88;6975619;28;20202;-76
2022/12/14 14:34:44;;;;;;;46.17;28.97;;;;;;;5.15;59.42;97076.75;6974684;28;20224;-76
2022/12/14 14:38:11;;;;;;;50.47;32.00;;;;;;;5.23;59.01;97071.16;6976094;28;20230;-75
2022/12/14 14:41:37;;;;;;;51.57;32.20;;;;;;;4.98;59.64;97075.59;6977617;28;20197;-77
2022/12/14 14:45:01;;;;;;;55.87;33.30;;;;;;;4.74;60.31;97089.66;6980855;28;20209;-76
2022/12/14 14:48:32;;;;;;;51.50;31.70;;;;;;;4.81;59.79;97109.97;6981454;28;20375;-76
2022/12/14 14:51:54;;;;;;;71.47;38.73;;;;;;;4.65;61.04;97110.41;6981564;28;20190;-76
2022/12/14 14:55:48;;;;;;;50.57;32.57;;;;;;;4.81;60.71;97130.50;6980282;28;20237;-76
2022/12/14 14:59:42;;;;;;;46.03;29.87;;;;;;;4.56;60.86;97122.38;6973526;28;20229;-77
2022/12/14 15:03:05;;;;;;;52.80;32.67;;;;;;;4.71;60.50;97144.28;6953072;28;20655;-76
2022/12/14 15:06:31;;;;;;;54.30;33.20;;;;;;;4.58;60.68;97141.66;6972463;28;20210;-76
2022/12/14 15:10:00;;;;;;;55.50;32.67;;;;;;;4.91;59.95;97150.41;6980577;28;20638;-76
2022/12/14 15:13:24;;;;;;;51.57;33.27;;;;;;;4.82;60.23;97162.34;6978586;28;20688;-76
2022/12/14 15:16:46;;;;;;;50.67;30.60;;;;;;;4.88;59.94;97177.50;6979228;28;20226;-76
2022/12/14 15:20:21;;;;;;;216.07;95.70;;;;;;;4.77;60.38;97186.16;7003363;28;20316;-76
2022/12/14 15:23:45;;;;;;;77.07;40.83;;;;;;;4.83;59.73;97141.81;6977965;28;20203;-79
2022/12/14 15:27:12;;;;;;;65.30;38.07;;;;;;;5.04;59.58;97190.41;6981249;28;20701;-78
2022/12/14 15:30:34;;;;;;;61.47;36.63;;;;;;;4.91;60.28;97189.63;6953224;28;20227;-77
2022/12/14 15:33:57;;;;;;;80.47;44.80;;;;;;;4.88;60.20;97192.69;6953744;28;20269;-79
2022/12/14 15:37:25;;;;;;;59.83;36.63;;;;;;;4.75;60.63;97185.56;6958020;28;20224;-80
2022/12/14 15:40:55;;;;;;;54.33;33.93;;;;;;;4.78;60.10;97214.50;6962839;28;20321;-78
2022/12/14 15:44:20;;;;;;;52.47;34.83;;;;;;;4.84;59.97;97215.53;6970718;28;20337;-79
2022/12/14 15:47:42;;;;;;;55.90;32.90;;;;;;;4.70;59.95;97238.72;6971646;28;20234;-76
2022/12/14 15:51:05;;;;;;;49.50;31.03;;;;;;;4.63;59.93;97247.75;6954925;28;20206;-78
2022/12/14 15:54:28;;;;;;;50.57;30.47;;;;;;;4.44;60.66;97236.09;6969895;28;20733;-78
2022/12/14 15:57:51;;;;;;;52.17;33.27;;;;;;;4.70;61.08;97225.38;6973756;28;20211;-79
2022/12/14 16:01:18;;;;;;;61.77;39.40;;;;;;;4.69;60.87;97238.94;6973726;28;20202;-78
2022/12/14 16:04:39;;;;;;;61.07;37.77;;;;;;;4.67;60.53;97247.13;6976772;28;20224;-77
2022/12/14 16:08:01;;;;;;;50.43;32.57;;;;;;;4.69;60.65;97252.28;6976504;28;20329;-78
2022/12/14 16:11:26;;;;;;;56.13;34.67;;;;;;;4.70;60.58;97245.91;6965219;28;20211;-78
2022/12/14 16:14:53;;;;;;;73.07;44.07;;;;;;;4.80;60.16;97251.66;6949159;28;20245;-80
2022/12/14 16:18:16;;;;;;;61.67;38.87;;;;;;;4.52;60.57;97257.22;6949488;28;20304;-78